Time;durP1;ratioP1;P1;durP2;ratioP2;P2;SDS_P1;SDS_P2;PMS_P1;PMS_P2;Temp;Humidity;BMP_temperature;BMP_pressure;BME280_temperature;BME280_humidity;BME280_pressure;Samples;Min_cycle;Max_cycle;Signal;HPM_P1;HPM_P2
2022/01/25 00:31:17;;;;;;;53.45;27.80;;;5.80;99.90;;;;;;5156381;27;20056;-82
2022/01/25 00:34:02;;;;;;;54.70;30.38;;;4.50;99.90;;;;;;5156331;27;20402;-82
2022/01/25 00:36:47;;;;;;;52.17;29.48;;;4.10;99.90;;;;;;5156551;27;20046;-82
2022/01/25 00:39:31;;;;;;;;;;;4.10;99.90;;;;;;5140666;27;20518;-82
2022/01/25 00:42:15;;;;;;;57.15;30.50;;;4.10;99.90;;;;;;5140659;27;20416;-82
2022/01/25 00:45:00;;;;;;;59.95;31.95;;;4.90;99.90;;;;;;5140460;27;20081;-82
2022/01/25 00:47:48;;;;;;;53.92;30.67;;;4.90;99.90;;;;;;5140736;27;20440;-82
2022/01/25 00:50:39;;;;;;;61.72;32.13;;;5.40;99.90;;;;;;5139218;27;20505;-82
2022/01/25 00:56:34;;;;;;;58.80;31.95;;;4.00;99.90;;;;;;5155463;27;20107;-82
2022/01/25 00:59:27;;;;;;;57.92;32.15;;;5.10;99.90;;;;;;5156328;27;20481;-82
2022/01/25 01:02:13;;;;;;;55.63;32.42;;;4.00;99.90;;;;;;5155718;27;20103;-82
2022/01/25 01:04:58;;;;;;;59.30;31.60;;;4.00;99.90;;;;;;5155745;27;20057;-82
2022/01/25 01:07:43;;;;;;;65.45;35.20;;;4.20;99.90;;;;;;5155279;27;20042;-82
2022/01/25 01:10:27;;;;;;;61.88;33.35;;;4.00;99.90;;;;;;5124739;27;20076;-82
2022/01/25 01:43:31;;;;;;;62.92;34.88;;;4.10;99.90;;;;;;5155034;27;20407;-82
2022/01/25 01:46:30;;;;;;;65.15;36.35;;;3.90;99.90;;;;;;5139191;27;20505;-82
2022/01/25 01:49:15;;;;;;;60.60;32.47;;;3.90;99.90;;;;;;5126431;27;20129;-82
2022/01/25 01:51:59;;;;;;;;;;;3.90;99.90;;;;;;5155259;27;20040;-82
2022/01/25 01:54:43;;;;;;;68.30;33.75;;;5.00;99.90;;;;;;5154253;27;20275;-82
2022/01/25 01:57:27;;;;;;;61.92;32.60;;;3.90;99.90;;;;;;5154719;27;20497;-82
2022/01/25 02:00:12;;;;;;;65.97;36.80;;;3.90;99.90;;;;;;5139137;27;20074;-82
2022/01/25 02:02:57;;;;;;;66.07;36.78;;;3.90;99.90;;;;;;5154673;27;20072;-83
2022/01/25 02:05:42;;;;;;;64.47;35.08;;;4.00;99.90;;;;;;5138644;27;20135;-82
2022/01/25 02:08:26;;;;;;;67.00;35.63;;;3.90;99.90;;;;;;5154636;27;20095;-82
2022/01/25 02:11:10;;;;;;;68.88;36.67;;;3.90;99.90;;;;;;5139016;27;20103;-83
2022/01/25 02:13:57;;;;;;;65.97;34.80;;;3.90;99.90;;;;;;5154668;27;20049;-82
2022/01/25 02:22:35;;;;;;;62.63;35.45;;;4.60;99.90;;;;;;5153249;27;20452;-82
2022/01/25 02:25:19;;;;;;;66.15;34.03;;;3.90;99.90;;;;;;5138686;27;20033;-83
2022/01/25 02:28:03;;;;;;;65.30;35.97;;;3.90;99.90;;;;;;5138624;27;20088;-82
2022/01/25 02:30:48;;;;;;;58.35;35.65;;;3.80;99.90;;;;;;5138080;27;20041;-82
2022/01/25 02:33:32;;;;;;;60.08;35.08;;;4.30;99.90;;;;;;5153986;27;20042;-83
2022/01/25 02:36:25;;;;;;;64.15;37.30;;;4.00;99.90;;;;;;5154252;27;20041;-83
2022/01/25 02:39:10;;;;;;;65.70;36.70;;;4.80;99.90;;;;;;5138267;27;20054;-83
2022/01/25 02:41:54;;;;;;;62.85;34.05;;;5.00;99.90;;;;;;5153518;27;20539;-82
2022/01/25 02:44:39;;;;;;;64.55;33.88;;;3.90;99.90;;;;;;5137744;27;20525;-82
2022/01/25 02:50:26;;;;;;;63.53;33.03;;;4.50;99.90;;;;;;5140880;27;20091;-83
2022/01/25 02:53:10;;;;;;;;;;;3.80;99.90;;;;;;5138206;27;20046;-82
2022/01/25 02:55:55;;;;;;;68.70;35.35;;;3.80;99.90;;;;;;5123374;27;20003;-82
2022/01/25 02:58:39;;;;;;;64.38;34.95;;;4.70;99.90;;;;;;5153313;27;20041;-82
2022/01/25 03:01:24;;;;;;;63.15;33.80;;;3.80;99.90;;;;;;5138302;27;20084;-82
2022/01/25 03:04:09;;;;;;;63.67;34.70;;;4.60;99.90;;;;;;5123730;27;20142;-82
2022/01/25 03:06:53;;;;;;;61.83;34.15;;;4.60;99.90;;;;;;5137644;27;20083;-83
2022/01/25 03:09:40;;;;;;;63.20;33.72;;;5.10;99.90;;;;;;5137617;27;20130;-83
2022/01/25 03:12:35;;;;;;;64.65;36.00;;;4.20;99.90;;;;;;5138195;27;20114;-82
2022/01/25 03:18:12;;;;;;;;;;;4.00;99.90;;;;;;5154323;27;20054;-82
2022/01/25 03:21:04;;;;;;;61.85;33.47;;;3.80;99.90;;;;;;5138725;27;20298;-83
2022/01/25 03:23:50;;;;;;;64.97;35.17;;;3.80;99.90;;;;;;5130323;27;20513;-83
2022/01/25 03:26:35;;;;;;;63.70;34.22;;;3.80;99.90;;;;;;5153552;27;20088;-83
2022/01/25 03:29:20;;;;;;;59.33;34.60;;;3.80;99.90;;;;;;5137844;27;20087;-82
2022/01/25 03:32:05;;;;;;;62.35;35.33;;;4.00;99.90;;;;;;5123483;27;20057;-82
2022/01/25 03:34:49;;;;;;;62.78;33.33;;;3.80;99.90;;;;;;5141158;27;20045;-83
2022/01/25 03:37:33;;;;;;;64.45;35.25;;;5.10;99.90;;;;;;5157270;27;20076;-82
2022/01/25 03:40:17;;;;;;;60.08;33.00;;;4.90;99.90;;;;;;5157508;27;20505;-83
2022/01/25 03:43:05;;;;;;;;;;;4.70;99.90;;;;;;5141554;27;20570;-82
2022/01/25 03:52:07;;;;;;;62.05;35.65;;;4.80;99.90;;;;;;5156446;27;20566;-82
2022/01/25 03:54:51;;;;;;;65.75;34.30;;;3.80;99.90;;;;;;5134815;27;20086;-83
2022/01/25 03:57:35;;;;;;;;;;;3.80;99.90;;;;;;5140999;27;20045;-83
2022/01/25 04:00:19;;;;;;;65.85;33.85;;;5.70;99.90;;;;;;5141255;27;19964;-82
2022/01/25 04:03:09;;;;;;;65.28;33.47;;;4.60;99.90;;;;;;5156088;27;20139;-82
2022/01/25 04:05:56;;;;;;;58.33;31.85;;;5.00;99.90;;;;;;5140377;27;20052;-82
2022/01/25 04:08:40;;;;;;;65.68;34.38;;;4.20;99.90;;;;;;5127291;27;20121;-82
2022/01/25 04:11:25;;;;;;;70.60;35.95;;;3.80;99.90;;;;;;5140909;27;20038;-82
2022/01/25 04:14:09;;;;;;;63.97;33.80;;;3.80;99.90;;;;;;5155904;27;20511;-82
2022/01/25 04:17:01;;;;;;;63.28;33.85;;;5.20;99.90;;;;;;5155822;27;20082;-82
2022/01/25 04:20:08;;;;;;;71.95;34.50;;;4.90;99.90;;;;;;5141582;27;20119;-83
2022/01/25 04:25:54;;;;;;;64.00;32.80;;;3.80;99.90;;;;;;5155839;27;20115;-83
2022/01/25 04:28:38;;;;;;;63.08;31.48;;;3.80;99.90;;;;;;5156309;27;20042;-83
2022/01/25 04:31:22;;;;;;;61.75;34.50;;;4.20;99.90;;;;;;5140763;27;20052;-83
2022/01/25 04:49:18;;;;;;;65.72;34.30;;;3.80;99.90;;;;;;5155390;27;20077;-83
2022/01/25 04:52:07;;;;;;;60.95;32.65;;;3.80;99.90;;;;;;5155474;27;20034;-83
2022/01/25 04:55:10;;;;;;;63.30;34.15;;;3.80;99.90;;;;;;5140306;27;20057;-83
2022/01/25 04:58:04;;;;;;;66.40;34.28;;;4.30;99.90;;;;;;5142605;27;20045;-83
2022/01/25 05:00:49;;;;;;;64.80;35.28;;;3.80;99.90;;;;;;5155734;27;20096;-83
2022/01/25 05:06:50;;;;;;;63.00;34.13;;;4.20;99.90;;;;;;5138980;27;20383;-83
2022/01/25 05:09:36;;;;;;;65.32;34.78;;;4.20;99.90;;;;;;5139849;27;20437;-83
2022/01/25 05:12:32;;;;;;;66.13;33.50;;;5.00;99.90;;;;;;5155569;27;20081;-83
2022/01/25 05:16:05;;;;;;;64.10;34.25;;;3.80;99.90;;;;;;5155021;27;20639;-84
2022/01/25 05:18:36;;;;;;;63.08;34.65;;;3.80;99.90;;;;;;5152428;27;20067;-82
2022/01/25 05:24:23;;;;;;;59.88;33.25;;;5.60;99.90;;;;;;5142303;27;20095;-83
2022/01/25 05:27:08;;;;;;;;;;;4.80;99.90;;;;;;5135674;27;20087;-82
2022/01/25 05:29:53;;;;;;;61.92;34.10;;;3.80;99.90;;;;;;5122848;27;19933;-83
2022/01/25 05:32:38;;;;;;;65.90;34.50;;;4.80;99.90;;;;;;5152760;27;20042;-83
2022/01/25 05:35:22;;;;;;;65.20;32.92;;;3.70;99.90;;;;;;5154456;27;20122;-83
2022/01/25 05:38:06;;;;;;;68.50;34.70;;;3.70;99.90;;;;;;5153552;27;20038;-83
2022/01/25 05:41:00;;;;;;;66.95;35.33;;;4.10;99.90;;;;;;5154170;27;20042;-83
2022/01/25 05:44:20;;;;;;;62.17;31.65;;;3.80;99.90;;;;;;5125750;27;20060;-83
2022/01/25 05:47:07;;;;;;;61.70;32.20;;;3.80;99.90;;;;;;5119752;27;20046;-83
2022/01/25 05:49:51;;;;;;;58.70;32.72;;;3.70;99.90;;;;;;5139358;27;20084;-83
2022/01/25 05:52:36;;;;;;;62.00;33.75;;;4.80;99.90;;;;;;5154576;27;20029;-83
2022/01/25 05:55:20;;;;;;;61.08;32.65;;;4.50;99.90;;;;;;5133393;27;20064;-83
2022/01/25 05:58:05;;;;;;;64.00;34.42;;;3.90;99.90;;;;;;5141864;27;20037;-84
2022/01/25 06:00:49;;;;;;;;;;;4.90;99.90;;;;;;5121160;27;20120;-83
2022/01/25 06:03:33;;;;;;;57.85;30.77;;;3.70;99.90;;;;;;5143656;27;20831;-83
2022/01/25 06:06:17;;;;;;;63.78;32.47;;;3.70;99.90;;;;;;5145224;27;20088;-84
2022/01/25 06:09:02;;;;;;;;;;;3.70;99.90;;;;;;5129867;27;20060;-84
2022/01/25 06:11:46;;;;;;;66.25;32.67;;;4.60;99.90;;;;;;5145673;27;19922;-83
2022/01/25 06:14:30;;;;;;;63.63;33.35;;;3.70;99.90;;;;;;5145254;27;20840;-84
2022/01/25 06:17:14;;;;;;;;;;;3.90;99.90;;;;;;5145704;27;20099;-83
2022/01/25 06:19:58;;;;;;;64.85;33.20;;;3.80;99.90;;;;;;5129738;27;19968;-83
2022/01/25 06:22:42;;;;;;;;;;;3.90;99.90;;;;;;5145920;27;20038;-84
2022/01/25 06:25:27;;;;;;;61.17;32.38;;;3.70;99.90;;;;;;5139266;27;19926;-83
2022/01/25 06:28:11;;;;;;;65.30;33.05;;;3.80;99.90;;;;;;5142191;27;20041;-84
2022/01/25 06:30:55;;;;;;;;;;;3.80;99.90;;;;;;5145778;27;20038;-83
2022/01/25 06:33:42;;;;;;;62.67;33.53;;;4.70;99.90;;;;;;5114993;27;20286;-83
2022/01/25 06:36:26;;;;;;;64.53;32.70;;;3.80;99.90;;;;;;5115595;27;20042;-83
2022/01/25 06:39:11;;;;;;;64.07;35.20;;;4.10;99.90;;;;;;5145352;27;20089;-84
2022/01/25 06:41:56;;;;;;;64.38;33.65;;;4.60;99.90;;;;;;5129305;27;20084;-83
2022/01/25 06:44:40;;;;;;;69.07;34.78;;;3.80;99.90;;;;;;5118609;27;20033;-83
2022/01/25 06:47:24;;;;;;;62.33;33.38;;;3.80;99.90;;;;;;5118750;27;20034;-84
2022/01/25 06:50:08;;;;;;;;;;;4.40;99.90;;;;;;5128435;27;20493;-83
2022/01/25 06:52:52;;;;;;;50.85;27.05;;;3.80;99.90;;;;;;5141390;27;19945;-83
2022/01/25 06:55:37;;;;;;;56.47;30.85;;;3.80;99.90;;;;;;5145521;27;20091;-83
2022/01/25 06:58:21;;;;;;;62.55;34.45;;;3.80;99.90;;;;;;5127900;27;20037;-83
2022/01/25 07:01:06;;;;;;;59.58;32.10;;;3.80;99.90;;;;;;5140587;27;20095;-83
2022/01/25 07:03:51;;;;;;;64.22;34.55;;;5.40;99.90;;;;;;5145708;27;20493;-84
2022/01/25 07:06:35;;;;;;;59.42;31.92;;;3.80;99.90;;;;;;5130778;27;20077;-84
2022/01/25 07:09:19;;;;;;;;;;;5.20;99.90;;;;;;5134390;27;20373;-83
2022/01/25 07:12:04;;;;;;;61.00;32.85;;;3.80;99.90;;;;;;5130254;27;19926;-83
2022/01/25 07:14:49;;;;;;;63.30;32.90;;;3.80;99.90;;;;;;5137303;27;20069;-83
2022/01/25 07:17:33;;;;;;;69.63;34.97;;;3.80;99.90;;;;;;5141752;27;20402;-83
2022/01/25 07:20:17;;;;;;;68.38;34.55;;;3.80;99.90;;;;;;5141252;27;20065;-83
2022/01/25 07:23:01;;;;;;;;;;;3.80;99.90;;;;;;5157512;27;20395;-84
2022/01/25 07:25:46;;;;;;;61.35;32.03;;;3.80;99.90;;;;;;5157292;27;19915;-83
2022/01/25 07:28:30;;;;;;;;;;;3.80;99.90;;;;;;5157043;27;20037;-83
2022/01/25 07:31:14;;;;;;;62.20;31.25;;;5.10;99.90;;;;;;5140796;27;20374;-83
2022/01/25 07:33:58;;;;;;;65.93;33.25;;;3.80;99.90;;;;;;5156801;27;20079;-83
2022/01/25 07:36:42;;;;;;;;;;;3.80;99.90;;;;;;5141818;27;20034;-83
2022/01/25 07:39:28;;;;;;;61.42;31.98;;;3.80;99.90;;;;;;5156882;27;20301;-83
2022/01/25 07:42:12;;;;;;;63.15;32.60;;;3.80;99.90;;;;;;5140709;27;20065;-83
2022/01/25 07:44:56;;;;;;;;;;;4.50;99.90;;;;;;5149446;27;20092;-83
2022/01/25 07:47:41;;;;;;;62.50;30.92;;;4.90;99.90;;;;;;5139585;27;20320;-83
2022/01/25 07:50:26;;;;;;;68.03;34.30;;;4.70;99.90;;;;;;5139839;27;20119;-84
2022/01/25 07:53:10;;;;;;;63.80;33.33;;;3.80;99.90;;;;;;5155447;27;20092;-83
2022/01/25 07:55:54;;;;;;;;;;;3.80;99.90;;;;;;5157748;27;20099;-83
2022/01/25 07:58:39;;;;;;;63.08;32.40;;;4.10;99.90;;;;;;5157111;27;19917;-83
2022/01/25 08:01:24;;;;;;;67.90;34.35;;;3.80;99.90;;;;;;5156464;27;20502;-83
2022/01/25 08:04:09;;;;;;;70.68;35.38;;;4.70;99.90;;;;;;5127074;27;20046;-83
2022/01/25 08:06:53;;;;;;;72.95;35.35;;;4.50;99.90;;;;;;5126923;27;20083;-84
2022/01/25 08:09:37;;;;;;;;;;;3.90;99.90;;;;;;5126908;27;20045;-83
2022/01/25 08:12:21;;;;;;;62.42;31.80;;;3.90;99.90;;;;;;5156007;27;19951;-83
2022/01/25 08:15:06;;;;;;;;;;;3.90;99.90;;;;;;5146774;27;20046;-83
2022/01/25 08:17:51;;;;;;;66.47;33.05;;;3.90;99.90;;;;;;5107584;27;19965;-83
2022/01/25 08:20:35;;;;;;;65.70;33.13;;;3.90;99.90;;;;;;5121023;27;20138;-83
2022/01/25 08:23:19;;;;;;;;;;;3.90;99.90;;;;;;5138431;27;20049;-83
2022/01/25 08:26:03;;;;;;;64.38;31.90;;;4.00;99.90;;;;;;5140493;27;19948;-83
2022/01/25 08:28:47;;;;;;;64.32;32.78;;;4.50;99.90;;;;;;5140440;27;20091;-83
2022/01/25 08:31:32;;;;;;;64.95;33.10;;;4.00;99.90;;;;;;5111127;27;20084;-83
2022/01/25 08:34:17;;;;;;;66.20;34.15;;;4.40;99.90;;;;;;5155269;27;20099;-83
2022/01/25 08:37:01;;;;;;;65.13;32.70;;;4.10;99.90;;;;;;5140095;27;20064;-83
2022/01/25 08:39:45;;;;;;;66.25;33.85;;;4.00;99.90;;;;;;5140047;27;20053;-83
2022/01/25 08:42:29;;;;;;;64.88;33.65;;;4.70;99.90;;;;;;5113797;27;20029;-83
2022/01/25 08:45:13;;;;;;;;;;;4.00;99.90;;;;;;5156226;27;20071;-83
2022/01/25 08:47:57;;;;;;;71.40;33.30;;;4.50;99.90;;;;;;5118737;27;19918;-83
2022/01/25 08:50:42;;;;;;;66.90;33.97;;;5.30;99.90;;;;;;5123692;27;20076;-83
2022/01/25 08:53:27;;;;;;;59.58;32.13;;;4.00;99.90;;;;;;5123909;27;20218;-83
2022/01/25 08:56:12;;;;;;;67.93;32.60;;;4.00;99.90;;;;;;5125103;27;20061;-83
2022/01/25 08:58:56;;;;;;;71.70;34.97;;;4.00;99.90;;;;;;5137251;27;20091;-84
2022/01/25 09:01:40;;;;;;;67.53;34.92;;;4.00;99.90;;;;;;5154917;27;20054;-83
2022/01/25 09:04:25;;;;;;;67.47;35.00;;;4.00;99.90;;;;;;5110364;27;20073;-83
2022/01/25 09:07:09;;;;;;;;;;;4.70;99.90;;;;;;5140060;27;20798;-83
2022/01/25 09:09:53;;;;;;;65.15;34.17;;;4.00;99.90;;;;;;5155158;27;19994;-83
2022/01/25 09:12:38;;;;;;;68.13;32.60;;;4.00;99.90;;;;;;5103364;27;20047;-83
2022/01/25 09:15:22;;;;;;;;;;;4.00;99.90;;;;;;5122269;27;20038;-84
2022/01/25 09:18:06;;;;;;;62.15;31.33;;;4.00;99.90;;;;;;5139383;27;19934;-83
2022/01/25 09:20:51;;;;;;;67.13;32.88;;;4.50;99.90;;;;;;5140032;27;20094;-83
2022/01/25 09:23:36;;;;;;;65.88;32.70;;;4.70;99.90;;;;;;5139253;27;20046;-84
2022/01/25 09:26:22;;;;;;;65.35;32.67;;;4.00;99.90;;;;;;5155327;27;20041;-83
2022/01/25 09:29:06;;;;;;;71.03;32.42;;;4.10;99.90;;;;;;5137316;27;20083;-83
2022/01/25 09:31:51;;;;;;;66.40;33.08;;;4.60;99.90;;;;;;5136499;27;20056;-83
2022/01/25 09:34:37;;;;;;;72.88;34.42;;;4.10;99.90;;;;;;5124444;27;20043;-83
2022/01/25 09:37:21;;;;;;;63.83;33.08;;;5.40;99.90;;;;;;5139268;27;20111;-83
2022/01/25 09:40:07;;;;;;;68.55;33.30;;;4.10;99.90;;;;;;5118438;27;20108;-84
2022/01/25 09:42:54;;;;;;;67.00;33.58;;;4.10;99.90;;;;;;5134940;27;20037;-84
2022/01/25 09:45:39;;;;;;;67.00;34.42;;;4.70;99.90;;;;;;5124938;27;20147;-84
2022/01/25 09:48:24;;;;;;;67.38;35.05;;;4.10;99.90;;;;;;5117091;27;20092;-84
2022/01/25 09:51:10;;;;;;;72.10;33.35;;;5.30;99.90;;;;;;5126413;27;20038;-84
2022/01/25 09:53:54;;;;;;;66.63;33.78;;;5.30;99.90;;;;;;5134120;27;20422;-84
2022/01/25 09:56:38;;;;;;;;;;;4.10;99.90;;;;;;5132530;27;20042;-84
2022/01/25 09:59:26;;;;;;;64.75;33.00;;;4.10;99.90;;;;;;5133444;27;19914;-84
2022/01/25 10:02:10;;;;;;;70.97;35.60;;;4.10;99.90;;;;;;5119231;27;20160;-84
2022/01/25 10:04:55;;;;;;;69.13;34.22;;;4.20;99.90;;;;;;5133210;27;20079;-86
2022/01/25 10:07:39;;;;;;;;;;;4.10;99.90;;;;;;5133090;27;20552;-84
2022/01/25 10:10:25;;;;;;;70.15;35.40;;;4.10;99.90;;;;;;5119609;27;19914;-84
2022/01/25 10:13:21;;;;;;;70.72;34.40;;;3.70;99.90;;;;;;5120528;27;20118;-84
2022/01/25 10:16:06;;;;;;;68.18;33.90;;;4.00;99.90;;;;;;5132459;27;20037;-84
2022/01/25 10:18:56;;;;;;;67.20;32.28;;;5.30;99.90;;;;;;5132802;27;20042;-84
2022/01/25 10:21:49;;;;;;;70.35;33.25;;;4.10;99.90;;;;;;5132835;27;20438;-84
2022/01/25 10:24:34;;;;;;;64.63;32.45;;;4.10;99.90;;;;;;5131711;27;20041;-84
2022/01/25 10:30:21;;;;;;;71.80;35.30;;;4.10;99.90;;;;;;5133150;27;20042;-84
2022/01/25 10:33:34;;;;;;;;;;;5.70;99.90;;;;;;5132412;27;20491;-84
2022/01/25 10:36:22;;;;;;;69.15;32.85;;;4.10;99.90;;;;;;5133039;27;19914;-84
2022/01/25 10:39:07;;;;;;;75.90;34.80;;;4.50;99.90;;;;;;5141464;27;20070;-84
2022/01/25 10:41:52;;;;;;;67.80;34.22;;;5.20;99.90;;;;;;5136666;27;20038;-84
2022/01/25 10:44:58;;;;;;;67.78;33.42;;;4.10;99.90;;;;;;5137751;27;20042;-84
2022/01/25 10:47:42;;;;;;;72.13;34.20;;;4.10;99.90;;;;;;5137171;27;20185;-83
2022/01/25 10:50:34;;;;;;;67.10;33.67;;;4.10;99.90;;;;;;5153663;27;20080;-84
2022/01/25 10:53:19;;;;;;;70.75;34.90;;;4.10;99.90;;;;;;5137817;27;20091;-84
2022/01/25 10:56:04;;;;;;;;;;;4.10;99.90;;;;;;5153939;27;20095;-84
2022/01/25 10:58:48;;;;;;;68.47;33.30;;;4.10;99.90;;;;;;5152843;27;19914;-84
2022/01/25 11:01:36;;;;;;;70.13;36.30;;;4.80;99.90;;;;;;5137754;27;20594;-83
2022/01/25 11:04:36;;;;;;;70.18;35.47;;;4.20;99.90;;;;;;5137595;27;20038;-84
2022/01/25 11:07:21;;;;;;;66.57;33.10;;;4.20;99.90;;;;;;5137672;27;20038;-84
2022/01/25 11:10:06;;;;;;;80.65;38.55;;;5.40;99.90;;;;;;5137575;27;20091;-84
2022/01/25 11:13:04;;;;;;;80.68;35.40;;;4.20;99.90;;;;;;5122319;27;20118;-84
2022/01/25 11:15:48;;;;;;;76.40;35.55;;;4.20;99.90;;;;;;5152676;27;20462;-84
2022/01/25 11:18:34;;;;;;;88.25;38.22;;;4.20;99.90;;;;;;5137697;27;20403;-84
2022/01/25 11:21:21;;;;;;;76.38;36.65;;;4.30;99.90;;;;;;5153216;27;20394;-83
2022/01/25 11:24:06;;;;;;;72.95;36.05;;;4.10;99.90;;;;;;5153186;27;20402;-84
2022/01/25 11:26:51;;;;;;;70.70;34.13;;;5.90;99.90;;;;;;5152635;27;20042;-84
2022/01/25 11:29:39;;;;;;;71.05;32.35;;;4.20;99.90;;;;;;5153184;27;20041;-84
2022/01/25 11:32:27;;;;;;;72.53;35.97;;;4.20;99.90;;;;;;5137483;27;20060;-84
2022/01/25 11:35:18;;;;;;;68.00;33.10;;;4.60;99.90;;;;;;5153035;27;20108;-84
2022/01/25 11:38:04;;;;;;;77.03;37.42;;;4.20;99.90;;;;;;5152556;27;20034;-84
2022/01/25 11:40:48;;;;;;;72.65;34.95;;;5.60;99.90;;;;;;5118823;27;20243;-84
2022/01/25 11:43:33;;;;;;;72.88;35.33;;;5.30;99.90;;;;;;5123658;27;20046;-84
2022/01/25 11:46:20;;;;;;;71.95;34.22;;;5.00;99.90;;;;;;5137452;27;20118;-86
2022/01/25 11:49:19;;;;;;;73.53;35.60;;;4.20;99.90;;;;;;5156089;27;20033;-85
2022/01/25 11:52:14;;;;;;;71.05;35.00;;;4.20;99.90;;;;;;5154879;27;20049;-84
2022/01/25 11:55:16;;;;;;;79.15;36.10;;;4.20;99.90;;;;;;5156410;27;20041;-86
2022/01/25 11:58:06;;;;;;;76.72;34.25;;;4.20;99.90;;;;;;5155391;27;20050;-84
2022/01/25 12:01:03;;;;;;;72.70;35.50;;;4.20;99.90;;;;;;5140880;27;20037;-84
2022/01/25 12:03:51;;;;;;;73.75;37.40;;;4.20;99.90;;;;;;5156500;27;20050;-84
2022/01/25 12:06:43;;;;;;;77.10;35.67;;;4.20;99.90;;;;;;5157172;27;20112;-84
2022/01/25 12:09:44;;;;;;;70.70;34.45;;;4.20;99.90;;;;;;5141417;27;20073;-84
2022/01/25 12:12:29;;;;;;;75.80;34.70;;;4.90;99.90;;;;;;5155515;27;20039;-84
2022/01/25 12:15:17;;;;;;;77.32;35.25;;;4.20;99.90;;;;;;5140803;27;20045;-84
2022/01/25 12:18:02;;;;;;;67.47;33.03;;;4.20;99.90;;;;;;5151863;27;20038;-84
2022/01/25 12:20:48;;;;;;;76.43;36.40;;;4.20;99.90;;;;;;5155390;27;20509;-84
2022/01/25 12:23:44;;;;;;;71.43;34.17;;;4.50;99.90;;;;;;5155812;27;20095;-84
2022/01/25 12:27:29;;;;;;;77.60;36.55;;;4.40;99.90;;;;;;5156080;27;20029;-84
2022/01/25 12:30:20;;;;;;;74.55;36.28;;;4.20;99.90;;;;;;5154957;27;20728;-84
2022/01/25 12:33:07;;;;;;;73.10;33.10;;;4.20;99.90;;;;;;5154873;27;20088;-84
2022/01/25 12:36:03;;;;;;;71.85;34.97;;;5.00;99.90;;;;;;5139447;27;20103;-84
2022/01/25 12:38:51;;;;;;;77.82;36.50;;;4.60;99.90;;;;;;5139122;27;20053;-84
2022/01/25 12:41:35;;;;;;;78.47;35.85;;;4.20;99.90;;;;;;5139726;27;20038;-84
2022/01/25 12:44:20;;;;;;;;;;;4.20;99.90;;;;;;5155915;27;20071;-84
2022/01/25 12:47:05;;;;;;;72.22;32.88;;;4.50;99.90;;;;;;5154862;27;19974;-84
2022/01/25 12:49:51;;;;;;;81.05;35.67;;;4.10;99.90;;;;;;5154883;27;20145;-84
2022/01/25 12:52:37;;;;;;;79.40;36.85;;;4.80;99.90;;;;;;5126754;27;20038;-84
2022/01/25 12:55:29;;;;;;;81.20;36.45;;;4.10;99.90;;;;;;5123673;27;20502;-84
2022/01/25 12:58:13;;;;;;;79.95;36.22;;;5.40;99.90;;;;;;5154685;27;20493;-84
2022/01/25 13:01:10;;;;;;;72.97;36.60;;;4.10;99.90;;;;;;5154583;27;20034;-90
2022/01/25 13:04:00;;;;;;;82.13;34.88;;;4.30;99.90;;;;;;5138737;27;20033;-84
2022/01/25 13:06:52;;;;;;;82.85;37.33;;;4.10;99.90;;;;;;5154866;27;20069;-84
2022/01/25 13:09:43;;;;;;;80.13;37.10;;;4.20;99.90;;;;;;5155321;27;20071;-84
2022/01/25 13:12:35;;;;;;;80.47;35.58;;;4.20;99.90;;;;;;5112649;27;20045;-84
2022/01/25 13:15:52;;;;;;;80.93;35.17;;;4.20;99.90;;;;;;5149752;27;20077;-84
2022/01/25 13:18:40;;;;;;;81.50;35.90;;;4.20;99.90;;;;;;5147230;27;20037;-84
2022/01/25 13:21:24;;;;;;;74.53;33.88;;;4.30;99.90;;;;;;5142685;27;20033;-84
2022/01/25 13:24:11;;;;;;;86.72;39.15;;;4.30;99.90;;;;;;5127452;27;20042;-84
2022/01/25 13:27:03;;;;;;;74.47;34.78;;;4.40;99.90;;;;;;5147326;27;20030;-84
2022/01/25 13:32:54;;;;;;;78.68;35.80;;;4.20;99.90;;;;;;5149574;27;20519;-84
2022/01/25 13:35:42;;;;;;;76.53;34.72;;;4.20;99.90;;;;;;5144209;27;20049;-84
2022/01/25 13:38:30;;;;;;;77.85;35.65;;;4.20;99.90;;;;;;5134502;27;20089;-84
2022/01/25 13:46:53;;;;;;;78.97;34.75;;;4.20;99.90;;;;;;5150505;27;20157;-84
2022/01/25 13:49:38;;;;;;;78.55;36.15;;;4.20;99.90;;;;;;5118419;27;20531;-84
2022/01/25 13:52:22;;;;;;;80.35;36.30;;;4.20;99.90;;;;;;5134451;27;20454;-84
2022/01/25 13:55:07;;;;;;;;;;;4.10;99.90;;;;;;5135006;27;20166;-84
2022/01/25 13:57:52;;;;;;;82.22;34.22;;;4.10;99.90;;;;;;5149567;27;20332;-84
2022/01/25 14:00:37;;;;;;;82.15;34.92;;;4.10;99.90;;;;;;5134613;27;20248;-84
2022/01/25 14:03:29;;;;;;;78.30;34.53;;;4.60;99.90;;;;;;5147379;27;20073;-84
2022/01/25 14:06:26;;;;;;;78.60;33.67;;;4.10;99.90;;;;;;5131221;27;20045;-84
2022/01/25 14:09:24;;;;;;;84.30;36.10;;;4.10;99.90;;;;;;5148632;27;20037;-84
2022/01/25 14:21:39;;;;;;;80.75;36.95;;;4.90;99.90;;;;;;5151171;27;20034;-84
2022/01/25 14:22:42;;;;;;;80.63;35.42;;;4.10;99.90;;;;;;5148779;27;20046;-84
2022/01/25 14:24:38;;;;;;;85.63;37.25;;;4.70;99.90;;;;;;5139116;27;20046;-84
2022/01/25 14:27:30;;;;;;;;;;;4.10;99.90;;;;;;5149744;27;20045;-83
2022/01/25 14:30:16;;;;;;;90.78;37.38;;;4.30;99.90;;;;;;5134288;27;19932;-84
2022/01/25 14:33:03;;;;;;;83.00;37.25;;;4.10;99.90;;;;;;5148419;27;20050;-84
2022/01/25 14:36:08;;;;;;;84.68;36.50;;;5.90;99.90;;;;;;5149220;27;20099;-84
2022/01/25 14:38:54;;;;;;;83.53;37.72;;;4.10;99.90;;;;;;5147701;27;20395;-84
2022/01/25 14:41:39;;;;;;;87.32;37.13;;;5.00;99.90;;;;;;5125743;27;20066;-84
2022/01/25 14:44:24;;;;;;;83.53;36.22;;;5.30;99.90;;;;;;5131454;27;20421;-84
2022/01/25 14:47:16;;;;;;;81.57;36.60;;;4.30;99.90;;;;;;5147126;27;20054;-84
2022/01/25 14:50:01;;;;;;;83.80;37.33;;;4.10;99.90;;;;;;5147994;27;20086;-85
2022/01/25 14:53:09;;;;;;;79.22;36.22;;;6.10;99.90;;;;;;5137474;27;20041;-84
2022/01/25 14:55:59;;;;;;;77.97;36.80;;;4.10;99.90;;;;;;5148661;27;20555;-84
2022/01/25 15:01:35;;;;;;;83.88;34.78;;;4.00;99.90;;;;;;5146877;27;20167;-83
2022/01/25 15:04:20;;;;;;;;;;;4.00;99.90;;;;;;5134283;27;20135;-86
2022/01/25 15:07:06;;;;;;;78.75;35.72;;;4.00;99.90;;;;;;5148679;27;19963;-85
2022/01/25 15:09:56;;;;;;;80.43;34.30;;;4.90;99.90;;;;;;5136516;27;20373;-86
2022/01/25 15:12:44;;;;;;;78.80;35.13;;;4.00;99.90;;;;;;5154078;27;20172;-84
2022/01/25 15:15:45;;;;;;;83.13;36.17;;;4.90;99.90;;;;;;5153344;27;20042;-85
2022/01/25 15:18:32;;;;;;;84.97;35.55;;;4.20;99.90;;;;;;5140122;27;20527;-84
2022/01/25 15:21:16;;;;;;;83.25;35.58;;;4.50;99.90;;;;;;5137795;27;20121;-83
2022/01/25 15:24:01;;;;;;;73.95;32.95;;;4.80;99.90;;;;;;5138309;27;20146;-84
2022/01/25 15:26:49;;;;;;;84.05;38.08;;;4.40;99.90;;;;;;5152451;27;20087;-83
2022/01/25 15:29:34;;;;;;;83.75;36.30;;;5.50;99.90;;;;;;5151949;27;20034;-83
2022/01/25 15:32:18;;;;;;;78.88;34.75;;;3.90;99.90;;;;;;5142204;27;20029;-84
2022/01/25 15:35:03;;;;;;;81.47;35.35;;;3.90;99.90;;;;;;5152557;27;20046;-84
2022/01/25 15:37:49;;;;;;;86.97;38.80;;;3.90;99.90;;;;;;5138433;27;20073;-86
2022/01/25 15:40:33;;;;;;;84.20;35.10;;;3.90;99.90;;;;;;5138187;27;20515;-84
2022/01/25 15:43:23;;;;;;;86.97;37.50;;;4.00;99.90;;;;;;5140382;27;20080;-83
2022/01/25 15:46:08;;;;;;;81.18;36.50;;;4.40;99.90;;;;;;5141731;27;20123;-83
2022/01/25 15:48:55;;;;;;;88.88;36.72;;;3.90;99.90;;;;;;5141752;27;20486;-87
2022/01/25 15:51:40;;;;;;;89.60;35.50;;;3.90;99.90;;;;;;5157636;27;20042;-83
2022/01/25 15:54:25;;;;;;;79.70;35.47;;;5.30;99.90;;;;;;5153192;27;20085;-83
2022/01/25 15:57:11;;;;;;;81.55;35.83;;;3.90;99.90;;;;;;5153769;27;20038;-82
2022/01/25 15:59:55;;;;;;;86.70;39.08;;;3.90;99.90;;;;;;5153432;27;20138;-83
2022/01/25 16:02:40;;;;;;;82.50;36.15;;;4.20;99.90;;;;;;5153460;27;20042;-83
2022/01/25 16:05:24;;;;;;;86.35;35.95;;;5.20;99.90;;;;;;5136875;27;20046;-83
2022/01/25 16:08:08;;;;;;;82.63;37.70;;;3.90;99.90;;;;;;5149473;27;20556;-83
2022/01/25 16:10:53;;;;;;;76.97;34.28;;;4.70;99.90;;;;;;5148171;27;20402;-84
2022/01/25 16:13:37;;;;;;;83.05;35.33;;;4.20;99.90;;;;;;5121443;27;20062;-83
2022/01/25 16:16:21;;;;;;;93.35;35.75;;;4.80;99.90;;;;;;5138871;27;20034;-83
2022/01/25 16:19:06;;;;;;;82.57;33.92;;;4.50;99.90;;;;;;5151945;27;20046;-84
2022/01/25 16:21:50;;;;;;;;;;;3.80;99.90;;;;;;5137441;27;20050;-83
2022/01/25 16:24:35;;;;;;;86.15;36.97;;;4.30;99.90;;;;;;5122564;27;19957;-83
2022/01/25 16:27:20;;;;;;;81.55;36.70;;;5.80;99.90;;;;;;5123044;27;20041;-83
2022/01/25 16:30:05;;;;;;;79.85;35.20;;;4.20;99.90;;;;;;5153246;27;20079;-85
2022/01/25 16:32:51;;;;;;;77.18;34.53;;;3.80;99.90;;;;;;5137612;27;20034;-83
2022/01/25 16:35:35;;;;;;;81.63;33.65;;;4.00;99.90;;;;;;5136262;27;20308;-84
2022/01/25 16:38:20;;;;;;;86.07;35.35;;;4.30;99.90;;;;;;5119568;27;20091;-84